Rechercher aéroport 
image banner adimage banner ad
image banner ad

FYPHIL - Philipp

Situé à , Namibia

ICAO - , IATA -

Données fournies par Airmate  

Information générale

Coordonnées: S25°58'53" E17°50'20"
Élévation : 3051 feet MSL.
 
Voir autres Aéroports à Hardap

Données opérationnelles

Accessible au public
Heure actuelle UTC:
Heure actuelle locale:
Météo à : FYKT - Keetmanshoop ( 68 km )
TAF: TAF FYKT 252200Z 2600/2700 18005KT 9999 FEW035CB SCT045 BECMG 2602/2604 00000KT NSC
Voir NOTAMs / SUP AIP / TFR affectant cet aéroport [VIEW]
Fréquences de communication: [VIEW]

Pistes:

Identifiant RWYQFULongueur (ft)Largeur (ft)SurfaceLDA (ft)
0971°262549SAND
27251°262549SAND
18160°328149SAND
36340°328149SAND

Coordonnées de l'aéroport

Adresse: Namibia

Vue satellite de FYPHIL